notre code QR

Villámtérkép további részletek blitzortung!


Csapadékradar további részletek rain snow radar


További állomásunk adatai:

Template documentation
and downloads

And another site

Mobil nézet





Fog Kiadva: 28-10-2020 00:00 Érvényes: 23:59 Figyelmeztetés: Fog Szint: Sárga info button
magyar:
Tartós (> 6 óra) sűrű köd (látástávolság pár száz méter) várható.

A korlátozott látástávolság, a sűrű köd kiterjedtebb területeket érint és huzamosabb ideig is fennállhat. Hosszabb menetidővel számoljunk a közutakon, alkalmazkodjunk a megváltozott látási viszonyokhoz. A repülőterek átmenetileg be is zárhatnak.

english:
Dense fog can be expected for several hours.

More widespread, locally dense fog affecting significant areas of the country but not persisting beyond 1 - 2 days. Some airports may close for short periods. Journeys through affected areas may take longer than usual. Take extra care when driving in affected areas. 

Közeli METAR jelentések

   
LHBP - Budapest
Frissítve: 28-10-2020 03:10
Foltokban, Köd, Párásság, Közepesen felhős  
Foltokban, Köd, Párásság, Közepesen felhős  
   Szél: változó 1.9 km/h
Szél: változó 1.9 km/h
Hőmérséklet: 7°C
Harmatpont: 7°C
Páratartalom: 100%
Légnyomás: 1015 hPa
Felhők: Közepesen felhős
Látótávolság: 5 km
Felhő fajták: Közepesen felhős
LHBP 280210Z VRB01KT 5000 R31L/0900D R31R/1000U BCFG BR NSC 07/07 Q1015 NOSIG
LHKE - Kecskemét
Frissítve: 28-10-2020 02:45
Köd, Közepesen felhős  
Köd, Közepesen felhős  
   Szél: Szélcsend
Szél: Szélcsend
Hőmérséklet: 6°C
Harmatpont: 6°C
Páratartalom: 100%
Légnyomás: 1015 hPa
Felhők: Közepesen felhős
Látótávolság: 0 km
Felhő fajták: Közepesen felhős 300 ft
LHKE 280145Z 00000KT 0200 FG SCT003 06/06 Q1015 R12/01//95 NOSIG RMK RED
LHPP - Pécs
Frissítve: 27-10-2020 19:45
NOT Current
Erősen felhős  
Erősen felhős  
   Szél: KÉK 3.7 km/h
Szél: KÉK 3.7 km/h
Hőmérséklet: 14°C
Harmatpont: 11°C
Páratartalom: 82%
Légnyomás: 1013 hPa
Felhők: Erősen felhős
Látótávolság: More than 10 km
Felhő fajták: Erősen felhős 4600 ft
LHPP 271845Z 07002KT 9999 BKN046 14/11 Q1013
LHSN - Szolnok
Frissítve: 28-10-2020 02:45
Köd, Közepesen felhős  
Köd, Közepesen felhős  
   Szél: Szélcsend
Szél: Szélcsend
Hőmérséklet: 7°C
Harmatpont: 7°C
Páratartalom: 100%
Légnyomás: 1015 hPa
Felhők: Közepesen felhős
Látótávolság: 1 km
Felhő fajták: Közepesen felhős 300 ft
LHSN 280145Z 00000KT 0600 R02/0600V1000U FG SCT003 07/07 Q1015 NOSIG RMK RED
LHDC - Debrecen
Frissítve: 28-10-2020 02:45
Párásság, Kissé felhős  
Párásság, Kissé felhős  
   Szél: KÉK 5.6 km/h
Szél: KÉK 5.6 km/h
Hőmérséklet: 7°C
Szélhűtés: 6°C
Harmatpont: 7°C
Páratartalom: 100%
Légnyomás: 1015 hPa
Felhők: Kissé felhős
Látótávolság: 3 km
Felhő fajták: Kissé felhős 300 ft
LHDC 280145Z AUTO 06003KT 3200 BR FEW003 07/07 Q1015
LHPA - Pápa
Frissítve: 28-10-2020 02:45
Erősen felhős  
Erősen felhős  
   Szél: NY 3.7 km/h
Szél: NY 3.7 km/h
Hőmérséklet: 9°C
Harmatpont: 7°C
Páratartalom: 87%
Légnyomás: 1016 hPa
Felhők: Erősen felhős
Látótávolság: 8 km
Felhő fajták: Erősen felhős 1300 ft,
Erősen felhős 8300 ft
LHPA 280145Z 28002KT 8000 BKN013 BKN083 09/07 Q1016 NOSIG RMK GRN

Eredeti script  Saratoga-weather.org Adapted for the template by  Weerstation Leuven

Készülékünk:

Weather-program
Meteobridge

Weather-server
My Computer

Meteobridge

My Computer